Ashland, Missouri
Current Conditions -  °F | °C
As of 12:54 AM on Sunday 26 Oct 2014 (Local Time) from KCOU Reporting Station
Clear Clear  
Wind Chill: 16°   Ceiling: Unl
Heat Index: 16°   Visibility: 10mi
Dew Point:   Wind: 7mph
Humidity: 64%   Direction: 70°ENE
Pressure: 30.02"   Gusts: NA
Location:  38.77°N, 92.26°W
Report Text: KCOU 260554Z AUTO 07006KT 10SM CLR 16/09 A3002 RMK AO2 SLP159 T01560089 10233 20150 402720117 56006 $
Loading
Personal Weather Stations






























Interactive Weather Map New forecast layout! Learn more

10-Day Weather Forecast

Advertisements
Track Severe Weather on mobile